createdAt,value
2023-04-12T00:01:34.858Z,9.80
2023-04-12T00:04:05.849Z,8.80
2023-04-12T00:06:33.951Z,9.00
2023-04-12T00:09:02.477Z,6.40
2023-04-12T00:11:32.017Z,6.50
2023-04-12T00:13:59.904Z,6.60
2023-04-12T00:16:27.965Z,6.30
2023-04-12T00:18:57.499Z,7.10
2023-04-12T00:21:28.820Z,6.50
2023-04-12T00:23:57.297Z,7.40
2023-04-12T00:26:25.892Z,7.50
2023-04-12T00:28:53.857Z,6.30
2023-04-12T00:31:21.934Z,7.40
2023-04-12T00:33:49.940Z,6.30
2023-04-12T00:36:17.956Z,5.80
2023-04-12T00:38:46.225Z,9.30
2023-04-12T00:41:15.451Z,6.60
2023-04-12T00:43:43.697Z,8.00
2023-04-12T00:46:14.467Z,8.10
2023-04-12T00:48:42.658Z,7.80
2023-04-12T00:51:10.690Z,7.30
2023-04-12T00:53:40.842Z,7.90
2023-04-12T00:56:12.007Z,6.50
2023-04-12T00:58:40.254Z,6.30
2023-04-12T01:01:10.579Z,4.90
2023-04-12T01:03:43.481Z,6.70
2023-04-12T01:06:13.981Z,5.60
2023-04-12T01:08:47.982Z,5.10
2023-04-12T01:11:28.807Z,5.00
2023-04-12T01:14:07.950Z,6.70
2023-04-12T01:16:44.178Z,9.90
2023-04-12T01:19:35.113Z,7.60
2023-04-12T01:22:29.136Z,7.40
2023-04-12T01:25:24.213Z,7.80
2023-04-12T01:27:59.832Z,8.60
2023-04-12T01:30:29.719Z,6.30
2023-04-12T01:33:00.955Z,5.00
2023-04-12T01:35:33.959Z,7.30
2023-04-12T01:38:04.315Z,6.00
2023-04-12T01:40:32.941Z,5.50
2023-04-12T01:43:11.655Z,4.10
2023-04-12T01:45:40.453Z,8.30
2023-04-12T01:48:10.780Z,5.00
2023-04-12T01:51:03.684Z,6.80
2023-04-12T01:53:54.983Z,6.00
2023-04-12T01:56:26.617Z,6.00
2023-04-12T01:58:56.431Z,5.90
2023-04-12T02:01:25.870Z,6.80
2023-04-12T02:03:54.765Z,6.90
2023-04-12T02:06:28.545Z,3.70
2023-04-12T02:09:02.325Z,5.10
2023-04-12T02:11:30.497Z,6.00
2023-04-12T02:13:58.886Z,6.20
2023-04-12T02:16:29.586Z,5.60
2023-04-12T02:18:58.907Z,6.60
2023-04-12T02:21:27.866Z,5.30
2023-04-12T02:23:56.235Z,6.80
2023-04-12T02:26:24.516Z,4.50
2023-04-12T02:28:52.666Z,4.40
2023-04-12T02:31:21.583Z,4.70
2023-04-12T02:33:50.475Z,7.90
2023-04-12T02:36:18.784Z,5.90
2023-04-12T02:38:50.834Z,6.30
2023-04-12T02:41:20.611Z,7.00
2023-04-12T02:43:49.113Z,10.10
2023-04-12T02:46:23.648Z,13.40
2023-04-12T02:48:55.934Z,10.50
2023-04-12T02:51:28.157Z,7.00
2023-04-12T02:53:56.442Z,5.90
2023-04-12T02:56:26.802Z,7.50
2023-04-12T02:59:01.752Z,8.50
2023-04-12T03:01:40.807Z,9.90
2023-04-12T03:04:30.790Z,11.40
2023-04-12T03:07:00.763Z,8.20
2023-04-12T03:09:38.485Z,7.10
2023-04-12T03:12:06.670Z,6.70
2023-04-12T03:14:37.919Z,8.00
2023-04-12T03:17:06.809Z,6.30
2023-04-12T03:19:37.313Z,6.50
2023-04-12T03:22:06.223Z,7.30
2023-04-12T03:24:37.310Z,4.90
2023-04-12T03:27:05.633Z,4.70
2023-04-12T03:29:34.652Z,4.80
2023-04-12T03:32:03.647Z,6.20
2023-04-12T03:34:32.703Z,6.70
2023-04-12T03:37:03.648Z,7.20
2023-04-12T03:39:47.860Z,9.00
2023-04-12T03:42:32.296Z,6.60
2023-04-12T03:47:33.217Z,8.00
2023-04-12T03:50:11.465Z,5.30
2023-04-12T03:52:40.738Z,8.50
2023-04-12T03:55:09.432Z,5.50
2023-04-12T03:57:37.901Z,7.10
2023-04-12T04:00:08.781Z,8.10
2023-04-12T04:03:05.201Z,9.00
2023-04-12T04:05:38.819Z,7.20
2023-04-12T04:08:08.299Z,7.90
2023-04-12T04:10:49.483Z,7.40
2023-04-12T04:13:17.794Z,5.70
2023-04-12T04:15:46.338Z,17.90
2023-04-12T04:18:14.336Z,85.60
2023-04-12T04:20:42.208Z,42.50
2023-04-12T04:23:10.794Z,54.30
2023-04-12T04:25:40.056Z,41.50
2023-04-12T04:28:08.534Z,29.40
2023-04-12T04:30:39.125Z,61.40
2023-04-12T04:33:09.774Z,27.10
2023-04-12T04:35:41.626Z,30.20
2023-04-12T04:38:25.857Z,24.50
2023-04-12T04:40:56.336Z,18.10
2023-04-12T04:43:30.719Z,15.70
2023-04-12T04:46:02.487Z,15.00
2023-04-12T04:48:30.766Z,21.10
2023-04-12T04:51:00.826Z,22.40
2023-04-12T04:53:29.170Z,20.70
2023-04-12T04:55:59.506Z,18.50
2023-04-12T04:58:28.350Z,15.60
2023-04-12T05:00:57.706Z,15.10
2023-04-12T05:03:30.815Z,19.50
2023-04-12T05:06:00.140Z,17.90
2023-04-12T05:08:28.865Z,19.60
2023-04-12T05:10:57.364Z,16.70
2023-04-12T05:13:28.185Z,15.20
2023-04-12T05:15:56.294Z,15.90
2023-04-12T05:18:24.208Z,18.30
2023-04-12T05:20:52.193Z,11.20
2023-04-12T05:23:20.469Z,10.70
2023-04-12T05:25:50.230Z,12.00
2023-04-12T05:28:19.196Z,11.90
2023-04-12T05:30:47.256Z,9.90
2023-04-12T05:33:17.992Z,15.10
2023-04-12T05:35:47.364Z,15.60
2023-04-12T05:38:15.265Z,14.20
2023-04-12T05:40:46.553Z,16.50
2023-04-12T05:43:15.442Z,18.80
2023-04-12T05:45:43.380Z,12.80
2023-04-12T05:48:11.460Z,15.40
2023-04-12T05:50:39.443Z,16.50
2023-04-12T05:53:08.186Z,12.60
2023-04-12T05:55:38.101Z,15.20
2023-04-12T05:58:07.286Z,60.70
2023-04-12T06:00:36.429Z,39.80
2023-04-12T06:03:05.072Z,31.30
2023-04-12T06:05:34.135Z,22.80
2023-04-12T06:08:03.061Z,14.80
2023-04-12T06:10:31.577Z,13.70
2023-04-12T06:12:59.555Z,14.10
2023-04-12T06:15:28.105Z,13.50
2023-04-12T06:17:56.452Z,11.80
2023-04-12T06:20:24.418Z,13.60
2023-04-12T06:22:52.844Z,12.40
2023-04-12T06:25:23.025Z,6.40
2023-04-12T06:27:51.337Z,8.90
2023-04-12T06:30:21.320Z,7.50
2023-04-12T06:32:52.732Z,8.90
2023-04-12T06:35:21.603Z,8.20
2023-04-12T06:37:50.151Z,8.20
2023-04-12T06:40:18.084Z,8.20
2023-04-12T06:42:46.022Z,6.90
2023-04-12T06:45:14.343Z,7.80
2023-04-12T06:47:42.461Z,7.70
2023-04-12T06:50:11.003Z,7.70
2023-04-12T06:52:39.026Z,8.50
2023-04-12T06:55:07.607Z,5.30
2023-04-12T06:57:35.588Z,5.80
2023-04-12T07:00:04.231Z,7.60
2023-04-12T07:02:32.636Z,5.80
2023-04-12T07:05:01.010Z,5.70
2023-04-12T07:07:28.927Z,4.90
2023-04-12T07:09:56.883Z,3.40
2023-04-12T07:12:24.929Z,3.20
2023-04-12T07:14:52.875Z,7.40
2023-04-12T07:17:21.684Z,5.00
2023-04-12T07:19:50.572Z,5.20
2023-04-12T07:22:18.515Z,3.60
2023-04-12T07:24:46.600Z,5.70
2023-04-12T07:27:14.721Z,9.30
2023-04-12T07:29:43.047Z,5.40
2023-04-12T07:32:11.037Z,7.20
2023-04-12T07:34:39.858Z,4.70
2023-04-12T07:37:08.137Z,3.70
2023-04-12T07:39:37.548Z,4.90
2023-04-12T07:42:05.798Z,4.20
2023-04-12T07:44:36.416Z,4.70
2023-04-12T07:47:07.273Z,5.10
2023-04-12T07:49:35.358Z,7.00
2023-04-12T07:52:03.356Z,3.20
2023-04-12T07:54:31.395Z,8.40
2023-04-12T07:57:01.483Z,5.70
2023-04-12T07:59:30.663Z,3.30
2023-04-12T08:01:58.610Z,8.70
2023-04-12T08:04:28.394Z,7.70
2023-04-12T08:06:56.531Z,7.90
2023-04-12T08:09:24.873Z,6.50
2023-04-12T08:11:53.229Z,3.80
2023-04-12T08:14:21.173Z,8.40
2023-04-12T08:16:49.267Z,12.00
2023-04-12T08:19:18.580Z,6.50
2023-04-12T08:21:46.679Z,4.00
2023-04-12T08:24:14.799Z,5.60
2023-04-12T08:26:42.801Z,5.00
2023-04-12T08:29:10.932Z,7.20
2023-04-12T08:31:39.679Z,6.60
2023-04-12T08:34:07.608Z,4.80
2023-04-12T08:36:35.465Z,4.70
2023-04-12T08:39:03.740Z,12.70
2023-04-12T08:41:36.072Z,3.60
2023-04-12T08:44:05.862Z,8.10
2023-04-12T08:46:36.435Z,5.90
2023-04-12T08:49:04.537Z,3.70
2023-04-12T08:51:33.866Z,4.60
2023-04-12T08:54:01.870Z,5.50
2023-04-12T08:56:30.489Z,2.70
2023-04-12T08:59:00.716Z,7.30
2023-04-12T09:01:28.929Z,3.30
2023-04-12T09:06:25.451Z,3.60
2023-04-12T09:08:55.664Z,4.70
2023-04-12T09:11:28.315Z,3.30
2023-04-12T09:13:58.154Z,3.50
2023-04-12T09:16:42.506Z,5.50
2023-04-12T09:19:10.590Z,3.40
2023-04-12T09:21:52.675Z,2.30
2023-04-12T09:24:24.274Z,5.20
2023-04-12T09:27:06.119Z,6.20
2023-04-12T09:29:34.411Z,4.80
2023-04-12T09:32:05.466Z,3.80
2023-04-12T09:34:37.620Z,4.00
2023-04-12T09:37:16.510Z,5.00
2023-04-12T09:39:44.531Z,3.20
2023-04-12T09:42:29.247Z,7.10
2023-04-12T09:45:03.001Z,6.30
2023-04-12T09:47:39.780Z,11.40
2023-04-12T09:50:09.984Z,5.40
2023-04-12T09:52:40.014Z,4.60
2023-04-12T09:55:10.519Z,6.40
2023-04-12T09:57:41.758Z,4.80
2023-04-12T10:00:18.528Z,7.30
2023-04-12T10:02:50.990Z,9.00
2023-04-12T10:05:22.399Z,5.30
2023-04-12T10:07:51.242Z,3.60
2023-04-12T10:10:20.392Z,3.40
2023-04-12T10:12:49.753Z,6.10
2023-04-12T10:15:20.882Z,4.40
2023-04-12T10:17:53.989Z,4.30
2023-04-12T10:20:26.187Z,17.30
2023-04-12T10:22:59.736Z,6.30
2023-04-12T10:25:31.187Z,4.30
2023-04-12T10:28:14.757Z,5.60
2023-04-12T10:30:43.163Z,4.10
2023-04-12T10:33:16.829Z,5.90
2023-04-12T10:36:00.866Z,2.00
2023-04-12T10:38:35.993Z,4.70
2023-04-12T10:41:15.521Z,8.80
2023-04-12T10:43:48.339Z,8.70
2023-04-12T10:46:36.716Z,6.80
2023-04-12T10:49:13.720Z,2.90
2023-04-12T10:52:14.497Z,3.80
2023-04-12T10:54:42.622Z,10.50
2023-04-12T10:57:42.719Z,5.70
2023-04-12T11:00:11.236Z,4.10
2023-04-12T11:03:09.993Z,6.20
2023-04-12T11:06:19.645Z,3.70
2023-04-12T11:09:34.190Z,5.30
2023-04-12T11:12:05.232Z,3.80
2023-04-12T11:14:38.776Z,3.30
2023-04-12T11:17:06.898Z,4.60
2023-04-12T11:19:38.623Z,4.20
2023-04-12T11:22:08.589Z,8.30
2023-04-12T11:24:43.633Z,16.10
2023-04-12T11:27:12.355Z,14.10
2023-04-12T11:29:40.584Z,6.50
2023-04-12T11:32:15.452Z,13.50
2023-04-12T11:34:45.889Z,5.00
2023-04-12T11:37:14.882Z,3.50
2023-04-12T11:39:44.749Z,5.00
2023-04-12T11:42:24.634Z,8.10
2023-04-12T11:44:58.945Z,5.90
2023-04-12T11:47:30.052Z,3.80
2023-04-12T11:49:59.317Z,4.10
2023-04-12T11:52:30.349Z,23.70
2023-04-12T11:55:06.385Z,8.80
2023-04-12T11:57:35.434Z,4.60
2023-04-12T12:00:06.751Z,6.80
2023-04-12T12:02:52.311Z,8.20
2023-04-12T12:05:24.824Z,6.30
2023-04-12T12:07:54.720Z,5.20
2023-04-12T12:10:41.540Z,6.70
2023-04-12T12:13:14.781Z,3.10
2023-04-12T12:15:46.261Z,6.30
2023-04-12T12:18:14.616Z,5.40
2023-04-12T12:20:51.419Z,3.70
2023-04-12T12:23:32.793Z,2.40
2023-04-12T12:26:17.639Z,3.70
2023-04-12T12:28:55.170Z,2.60
2023-04-12T12:31:26.266Z,7.30
2023-04-12T12:33:57.044Z,3.30
2023-04-12T12:36:36.731Z,4.40
2023-04-12T12:39:12.675Z,3.00
2023-04-12T12:41:41.453Z,5.60
2023-04-12T12:44:11.405Z,2.80
2023-04-12T12:49:10.295Z,5.40
2023-04-12T12:51:38.542Z,5.20
2023-04-12T12:54:07.825Z,4.90
2023-04-12T12:56:35.951Z,6.60
2023-04-12T12:59:04.365Z,4.20
2023-04-12T13:01:32.469Z,6.70
2023-04-12T13:04:00.859Z,6.90
2023-04-12T13:06:29.349Z,5.40
2023-04-12T13:08:57.806Z,8.70
2023-04-12T13:11:26.118Z,6.70
2023-04-12T13:13:54.173Z,7.20
2023-04-12T13:16:24.006Z,7.60
2023-04-12T13:18:53.329Z,3.80
2023-04-12T13:21:21.289Z,9.20
2023-04-12T13:23:49.283Z,8.90
2023-04-12T13:26:17.397Z,2.20
2023-04-12T13:28:45.450Z,3.10
2023-04-12T13:31:13.365Z,4.10
2023-04-12T13:33:41.458Z,11.50
2023-04-12T13:36:09.572Z,7.70
2023-04-12T13:38:37.460Z,4.90
2023-04-12T13:41:05.513Z,3.30
2023-04-12T13:43:33.969Z,4.20
2023-04-12T13:46:02.017Z,5.30
2023-04-12T13:48:30.194Z,4.60
2023-04-12T13:50:58.445Z,3.80
2023-04-12T13:53:26.346Z,5.30
2023-04-12T13:55:54.454Z,7.70
2023-04-12T13:58:22.368Z,8.10
2023-04-12T14:00:50.455Z,7.70
2023-04-12T14:03:18.574Z,4.00
2023-04-12T14:05:47.123Z,5.30
2023-04-12T14:08:15.069Z,2.60
2023-04-12T14:10:43.167Z,4.60
2023-04-12T14:13:11.311Z,3.20
2023-04-12T14:15:39.597Z,3.40
2023-04-12T14:18:07.558Z,4.00
2023-04-12T14:20:36.031Z,2.90
2023-04-12T14:23:05.746Z,4.90
2023-04-12T14:25:37.437Z,4.50
2023-04-12T14:28:05.398Z,6.30
2023-04-12T14:30:33.414Z,3.50
2023-04-12T14:33:02.113Z,9.50
2023-04-12T14:35:30.337Z,3.00
2023-04-12T14:37:58.616Z,3.20
2023-04-12T14:40:26.674Z,3.70
2023-04-12T14:42:54.561Z,8.20
2023-04-12T14:45:22.932Z,3.70
2023-04-12T14:47:50.961Z,6.10
2023-04-12T14:50:18.905Z,8.00
2023-04-12T14:52:47.163Z,5.40
2023-04-12T14:55:17.447Z,6.60
2023-04-12T14:57:45.735Z,4.40
2023-04-12T15:00:17.502Z,4.30
2023-04-12T15:02:47.454Z,4.50
2023-04-12T15:05:15.924Z,6.40
2023-04-12T15:07:52.175Z,4.70
2023-04-12T15:10:21.652Z,3.90
2023-04-12T15:12:49.635Z,6.70
2023-04-12T15:15:17.574Z,10.10
2023-04-12T15:17:46.296Z,7.30
2023-04-12T15:20:16.780Z,5.10
2023-04-12T15:22:45.076Z,4.30
2023-04-12T15:25:12.986Z,4.10
2023-04-12T15:27:40.843Z,6.50
2023-04-12T15:30:10.917Z,4.90
2023-04-12T15:32:42.640Z,3.90
2023-04-12T15:35:25.273Z,4.80
2023-04-12T15:37:55.457Z,6.50
2023-04-12T15:40:24.433Z,7.60
2023-04-12T15:42:52.660Z,6.90
2023-04-12T15:45:20.642Z,4.40
2023-04-12T15:47:48.825Z,5.50
2023-04-12T15:50:17.178Z,5.20
2023-04-12T15:52:45.070Z,7.40
2023-04-12T15:55:13.095Z,5.80
2023-04-12T15:57:41.013Z,7.50
2023-04-12T16:00:20.914Z,10.40
2023-04-12T16:02:56.223Z,8.10
2023-04-12T16:05:24.774Z,10.90
2023-04-12T16:07:54.166Z,13.20
2023-04-12T16:10:22.840Z,16.30
2023-04-12T16:12:52.599Z,17.80
2023-04-12T16:15:22.679Z,14.80
2023-04-12T16:17:55.549Z,14.30
2023-04-12T16:20:24.136Z,6.70
2023-04-12T16:22:54.498Z,6.30
2023-04-12T16:25:24.357Z,6.30
2023-04-12T16:27:52.380Z,8.00
2023-04-12T16:30:22.447Z,10.90
2023-04-12T16:32:53.791Z,15.70
2023-04-12T16:35:21.909Z,26.40
2023-04-12T16:37:50.373Z,27.50
2023-04-12T16:40:18.432Z,24.00
2023-04-12T16:42:46.727Z,26.70
2023-04-12T16:45:15.205Z,33.70
2023-04-12T16:47:46.308Z,35.00
2023-04-12T16:50:15.436Z,28.00
2023-04-12T16:52:43.575Z,24.00
2023-04-12T16:55:12.608Z,24.40
2023-04-12T16:57:42.184Z,20.00
2023-04-12T17:00:22.569Z,11.70
2023-04-12T17:02:52.539Z,7.50
2023-04-12T17:05:22.091Z,4.00
2023-04-12T17:07:52.235Z,4.60
2023-04-12T17:10:22.052Z,5.10
2023-04-12T17:12:54.881Z,4.60
2023-04-12T17:15:23.331Z,4.70
2023-04-12T17:17:53.315Z,7.60
2023-04-12T17:20:23.154Z,17.20
2023-04-12T17:22:52.178Z,23.30
2023-04-12T17:25:21.509Z,36.70
2023-04-12T17:27:55.555Z,43.10
2023-04-12T17:30:24.073Z,46.60
2023-04-12T17:32:53.450Z,59.10
2023-04-12T17:35:21.487Z,57.90
2023-04-12T17:37:49.486Z,47.50
2023-04-12T17:40:18.452Z,36.80
2023-04-12T17:42:46.404Z,21.80
2023-04-12T17:45:14.764Z,35.40
2023-04-12T17:47:43.870Z,20.40
2023-04-12T17:50:12.633Z,16.10
2023-04-12T17:52:41.042Z,12.70
2023-04-12T17:55:10.025Z,15.30
2023-04-12T17:57:38.275Z,14.50
2023-04-12T18:00:11.760Z,24.50
2023-04-12T18:02:46.797Z,32.40
2023-04-12T18:05:15.485Z,28.00
2023-04-12T18:07:43.383Z,28.30
2023-04-12T18:10:15.758Z,23.10
2023-04-12T18:12:45.145Z,23.00
2023-04-12T18:15:13.408Z,17.30
2023-04-12T18:17:41.733Z,17.60
2023-04-12T18:20:10.866Z,19.30
2023-04-12T18:22:40.152Z,17.20
2023-04-12T18:25:09.691Z,17.80
2023-04-12T18:27:37.889Z,19.50
2023-04-12T18:30:07.636Z,21.80
2023-04-12T18:32:35.800Z,17.40
2023-04-12T18:35:05.124Z,17.30
2023-04-12T18:37:33.148Z,16.50
2023-04-12T18:40:01.631Z,24.10
2023-04-12T18:42:29.919Z,27.90
2023-04-12T18:44:58.378Z,22.60
2023-04-12T18:47:26.700Z,15.90
2023-04-12T18:49:55.327Z,15.80
2023-04-12T18:52:23.284Z,14.30
2023-04-12T18:54:51.755Z,13.20
2023-04-12T18:57:20.070Z,14.20
2023-04-12T18:59:49.048Z,12.70
2023-04-12T19:02:18.292Z,13.40
2023-04-12T19:04:47.042Z,12.90
2023-04-12T19:07:15.398Z,12.10
2023-04-12T19:09:43.485Z,12.30
2023-04-12T19:12:11.972Z,13.70
2023-04-12T19:14:39.923Z,13.10
2023-04-12T19:17:08.153Z,10.40
2023-04-12T19:19:36.369Z,10.50
2023-04-12T19:22:04.243Z,11.10
2023-04-12T19:24:33.320Z,12.80
2023-04-12T19:27:01.839Z,12.30
2023-04-12T19:29:29.777Z,12.00
2023-04-12T19:32:00.746Z,10.10
2023-04-12T19:34:28.682Z,12.40
2023-04-12T19:36:56.572Z,11.10
2023-04-12T19:39:26.916Z,11.90
2023-04-12T19:41:55.063Z,13.20
2023-04-12T19:44:23.411Z,14.30
2023-04-12T19:46:52.210Z,13.70
2023-04-12T19:49:23.769Z,19.00
2023-04-12T19:51:52.250Z,18.40
2023-04-12T19:54:23.735Z,20.50
2023-04-12T19:56:53.545Z,22.40
2023-04-12T19:59:21.797Z,20.30
2023-04-12T20:01:50.156Z,15.60
2023-04-12T20:04:20.596Z,15.30
2023-04-12T20:06:50.366Z,16.10
2023-04-12T20:09:19.334Z,16.90
2023-04-12T20:11:47.547Z,18.00
2023-04-12T20:14:15.888Z,18.30
2023-04-12T20:16:45.639Z,21.00
2023-04-12T20:19:13.869Z,17.70
2023-04-12T20:21:41.934Z,19.80
2023-04-12T20:24:09.870Z,22.30
2023-04-12T20:26:38.052Z,17.80
2023-04-12T20:29:06.772Z,18.50
2023-04-12T20:31:35.037Z,15.80
2023-04-12T20:34:04.163Z,19.80
2023-04-12T20:36:32.874Z,16.10
2023-04-12T20:39:01.721Z,16.50
2023-04-12T20:41:29.756Z,14.50
2023-04-12T20:43:59.427Z,17.80
2023-04-12T20:46:27.548Z,14.70
2023-04-12T20:48:56.555Z,13.40
2023-04-12T20:51:24.872Z,10.40
2023-04-12T20:53:53.775Z,12.00
2023-04-12T20:56:21.690Z,11.00
2023-04-12T20:58:49.993Z,12.10
2023-04-12T21:01:18.741Z,10.70
2023-04-12T21:03:47.229Z,12.00
2023-04-12T21:06:17.047Z,9.10
2023-04-12T21:08:47.402Z,14.50
2023-04-12T21:11:16.391Z,9.20
2023-04-12T21:13:44.750Z,10.20
2023-04-12T21:16:16.107Z,11.40
2023-04-12T21:18:44.855Z,8.70
2023-04-12T21:21:12.850Z,8.80
2023-04-12T21:23:41.133Z,10.70
2023-04-12T21:26:09.083Z,8.90
2023-04-12T21:28:38.485Z,9.90
2023-04-12T21:31:07.157Z,9.80
2023-04-12T21:33:36.571Z,11.40
2023-04-12T21:36:04.903Z,11.40
2023-04-12T21:38:32.836Z,11.30
2023-04-12T21:41:08.161Z,10.60
2023-04-12T21:43:36.058Z,12.50
2023-04-12T21:46:07.878Z,11.30
2023-04-12T21:48:36.515Z,14.60
2023-04-12T21:51:04.728Z,12.50
2023-04-12T21:53:32.705Z,11.20
2023-04-12T21:56:01.213Z,14.00
2023-04-12T21:58:30.148Z,13.10
2023-04-12T22:00:58.444Z,12.90
2023-04-12T22:03:26.468Z,10.50
2023-04-12T22:06:04.063Z,13.10
2023-04-12T22:08:33.212Z,12.00
2023-04-12T22:11:01.452Z,14.20
2023-04-12T22:13:30.684Z,12.20
2023-04-12T22:16:00.675Z,11.30
2023-04-12T22:18:28.698Z,10.80
2023-04-12T22:20:57.570Z,11.20
2023-04-12T22:23:25.464Z,11.30
2023-04-12T22:25:58.432Z,11.20
2023-04-12T22:28:26.559Z,10.50
2023-04-12T22:30:57.214Z,11.00
2023-04-12T22:33:25.349Z,10.20
2023-04-12T22:35:53.793Z,10.80
2023-04-12T22:38:21.792Z,11.90
2023-04-12T22:40:49.707Z,9.20
2023-04-12T22:43:20.922Z,12.70
2023-04-12T22:45:48.873Z,11.60
2023-04-12T22:48:16.839Z,10.90
2023-04-12T22:50:45.238Z,10.20
2023-04-12T22:53:14.099Z,10.50
2023-04-12T22:55:42.297Z,12.90
2023-04-12T22:58:10.349Z,13.50
2023-04-12T23:00:39.398Z,11.80
2023-04-12T23:03:10.916Z,13.00
2023-04-12T23:05:42.412Z,11.60
2023-04-12T23:08:14.203Z,11.40
2023-04-12T23:10:42.649Z,11.30
2023-04-12T23:13:11.354Z,10.90
2023-04-12T23:15:42.783Z,9.50
2023-04-12T23:18:11.313Z,11.80
2023-04-12T23:20:40.385Z,10.80
2023-04-12T23:23:08.432Z,10.80
2023-04-12T23:25:39.602Z,9.80
2023-04-12T23:28:13.501Z,10.00
2023-04-12T23:30:44.109Z,13.30
2023-04-12T23:33:12.513Z,10.70
2023-04-12T23:35:41.376Z,14.30
2023-04-12T23:38:09.891Z,11.30
2023-04-12T23:40:38.089Z,10.80
2023-04-12T23:43:08.620Z,11.60
2023-04-12T23:45:38.406Z,13.20
2023-04-12T23:48:07.170Z,10.30
2023-04-12T23:50:35.274Z,12.80
2023-04-12T23:53:03.701Z,13.20
2023-04-12T23:55:31.843Z,10.10
2023-04-12T23:57:59.823Z,10.20
